sensor_id;sensor_type;location;lat;lon;timestamp;P1;durP1;ratioP1;P2;durP2;ratioP2
1306;SDS011;646;48.696;9.114;2022-07-22T00:00:27;10.33;;;9.40;;
1306;SDS011;646;48.696;9.114;2022-07-22T00:02:53;10.03;;;9.03;;
1306;SDS011;646;48.696;9.114;2022-07-22T00:05:18;8.90;;;8.13;;
1306;SDS011;646;48.696;9.114;2022-07-22T00:07:44;9.70;;;8.80;;
1306;SDS011;646;48.696;9.114;2022-07-22T00:10:09;10.00;;;9.10;;
1306;SDS011;646;48.696;9.114;2022-07-22T00:12:36;9.13;;;8.37;;
1306;SDS011;646;48.696;9.114;2022-07-22T00:15:02;10.17;;;9.27;;
1306;SDS011;646;48.696;9.114;2022-07-22T00:17:28;9.80;;;9.00;;
1306;SDS011;646;48.696;9.114;2022-07-22T00:19:54;9.90;;;8.80;;
1306;SDS011;646;48.696;9.114;2022-07-22T00:22:19;10.57;;;9.60;;
1306;SDS011;646;48.696;9.114;2022-07-22T00:24:45;10.47;;;9.57;;
1306;SDS011;646;48.696;9.114;2022-07-22T00:27:10;10.37;;;9.37;;
1306;SDS011;646;48.696;9.114;2022-07-22T00:29:36;9.67;;;8.80;;
1306;SDS011;646;48.696;9.114;2022-07-22T00:32:01;10.00;;;9.20;;
1306;SDS011;646;48.696;9.114;2022-07-22T00:34:27;9.70;;;8.90;;
1306;SDS011;646;48.696;9.114;2022-07-22T00:36:52;11.43;;;8.90;;
1306;SDS011;646;48.696;9.114;2022-07-22T00:39:18;9.50;;;8.60;;
1306;SDS011;646;48.696;9.114;2022-07-22T00:41:43;11.67;;;9.37;;
1306;SDS011;646;48.696;9.114;2022-07-22T00:44:09;9.47;;;8.67;;
1306;SDS011;646;48.696;9.114;2022-07-22T00:46:35;9.13;;;8.30;;
1306;SDS011;646;48.696;9.114;2022-07-22T00:49:02;9.43;;;8.63;;
1306;SDS011;646;48.696;9.114;2022-07-22T00:51:30;10.37;;;9.37;;
1306;SDS011;646;48.696;9.114;2022-07-22T00:53:55;11.27;;;10.03;;
1306;SDS011;646;48.696;9.114;2022-07-22T00:56:22;11.87;;;10.77;;
1306;SDS011;646;48.696;9.114;2022-07-22T00:58:49;12.03;;;10.93;;
1306;SDS011;646;48.696;9.114;2022-07-22T01:01:16;11.93;;;10.70;;
1306;SDS011;646;48.696;9.114;2022-07-22T01:03:43;11.10;;;10.10;;
1306;SDS011;646;48.696;9.114;2022-07-22T01:06:08;10.73;;;9.80;;
1306;SDS011;646;48.696;9.114;2022-07-22T01:08:34;10.97;;;9.63;;
1306;SDS011;646;48.696;9.114;2022-07-22T01:11:19;11.33;;;10.23;;
1306;SDS011;646;48.696;9.114;2022-07-22T01:13:45;10.80;;;9.90;;
1306;SDS011;646;48.696;9.114;2022-07-22T01:16:12;10.77;;;9.87;;
1306;SDS011;646;48.696;9.114;2022-07-22T01:18:39;10.17;;;9.27;;
1306;SDS011;646;48.696;9.114;2022-07-22T01:21:05;10.37;;;9.37;;
1306;SDS011;646;48.696;9.114;2022-07-22T01:23:32;11.90;;;10.80;;
1306;SDS011;646;48.696;9.114;2022-07-22T01:25:59;25.37;;;11.43;;
1306;SDS011;646;48.696;9.114;2022-07-22T01:28:24;10.37;;;9.43;;
1306;SDS011;646;48.696;9.114;2022-07-22T01:30:50;10.47;;;9.40;;
1306;SDS011;646;48.696;9.114;2022-07-22T01:33:17;10.73;;;9.60;;
1306;SDS011;646;48.696;9.114;2022-07-22T01:35:43;11.63;;;10.53;;
1306;SDS011;646;48.696;9.114;2022-07-22T01:38:09;11.53;;;10.30;;
1306;SDS011;646;48.696;9.114;2022-07-22T01:40:34;10.70;;;9.67;;
1306;SDS011;646;48.696;9.114;2022-07-22T01:43:00;11.20;;;10.10;;
1306;SDS011;646;48.696;9.114;2022-07-22T01:45:26;12.97;;;11.07;;
1306;SDS011;646;48.696;9.114;2022-07-22T01:47:51;10.77;;;9.73;;
1306;SDS011;646;48.696;9.114;2022-07-22T01:50:17;11.30;;;10.17;;
1306;SDS011;646;48.696;9.114;2022-07-22T01:52:42;10.10;;;9.20;;
1306;SDS011;646;48.696;9.114;2022-07-22T01:55:08;11.27;;;10.20;;
1306;SDS011;646;48.696;9.114;2022-07-22T01:57:38;10.80;;;9.80;;
1306;SDS011;646;48.696;9.114;2022-07-22T02:00:05;10.20;;;9.20;;
1306;SDS011;646;48.696;9.114;2022-07-22T02:02:31;9.90;;;9.00;;
1306;SDS011;646;48.696;9.114;2022-07-22T02:04:57;10.90;;;9.80;;
1306;SDS011;646;48.696;9.114;2022-07-22T02:07:22;11.23;;;10.23;;
1306;SDS011;646;48.696;9.114;2022-07-22T02:09:50;10.67;;;9.70;;
1306;SDS011;646;48.696;9.114;2022-07-22T02:12:16;11.23;;;10.13;;
1306;SDS011;646;48.696;9.114;2022-07-22T02:14:42;11.90;;;9.27;;
1306;SDS011;646;48.696;9.114;2022-07-22T02:17:08;10.50;;;9.60;;
1306;SDS011;646;48.696;9.114;2022-07-22T02:19:34;11.13;;;10.13;;
1306;SDS011;646;48.696;9.114;2022-07-22T02:21:59;9.30;;;8.40;;
1306;SDS011;646;48.696;9.114;2022-07-22T02:24:25;11.63;;;10.20;;
1306;SDS011;646;48.696;9.114;2022-07-22T02:26:50;12.07;;;9.50;;
1306;SDS011;646;48.696;9.114;2022-07-22T02:29:16;23.90;;;10.67;;
1306;SDS011;646;48.696;9.114;2022-07-22T02:31:41;10.33;;;9.23;;
1306;SDS011;646;48.696;9.114;2022-07-22T02:34:07;18.57;;;10.23;;
1306;SDS011;646;48.696;9.114;2022-07-22T02:36:33;11.57;;;10.47;;
1306;SDS011;646;48.696;9.114;2022-07-22T02:38:58;11.30;;;10.20;;
1306;SDS011;646;48.696;9.114;2022-07-22T02:41:24;10.23;;;9.33;;
1306;SDS011;646;48.696;9.114;2022-07-22T02:43:50;11.00;;;9.90;;
1306;SDS011;646;48.696;9.114;2022-07-22T02:46:18;10.70;;;9.73;;
1306;SDS011;646;48.696;9.114;2022-07-22T02:48:45;11.57;;;10.57;;
1306;SDS011;646;48.696;9.114;2022-07-22T02:51:11;11.27;;;10.27;;
1306;SDS011;646;48.696;9.114;2022-07-22T02:53:36;11.60;;;10.50;;
1306;SDS011;646;48.696;9.114;2022-07-22T02:56:02;10.13;;;9.13;;
1306;SDS011;646;48.696;9.114;2022-07-22T02:58:27;11.03;;;10.13;;
1306;SDS011;646;48.696;9.114;2022-07-22T03:00:53;11.17;;;10.17;;
1306;SDS011;646;48.696;9.114;2022-07-22T03:03:18;10.57;;;9.57;;
1306;SDS011;646;48.696;9.114;2022-07-22T03:05:44;11.10;;;9.83;;
1306;SDS011;646;48.696;9.114;2022-07-22T03:08:09;13.93;;;10.00;;
1306;SDS011;646;48.696;9.114;2022-07-22T03:10:36;11.20;;;10.20;;
1306;SDS011;646;48.696;9.114;2022-07-22T03:13:02;10.67;;;9.67;;
1306;SDS011;646;48.696;9.114;2022-07-22T03:15:27;42.57;;;12.40;;
1306;SDS011;646;48.696;9.114;2022-07-22T03:17:53;10.97;;;10.03;;
1306;SDS011;646;48.696;9.114;2022-07-22T03:20:19;11.50;;;10.50;;
1306;SDS011;646;48.696;9.114;2022-07-22T03:22:44;11.37;;;10.27;;
1306;SDS011;646;48.696;9.114;2022-07-22T03:25:10;11.53;;;10.33;;
1306;SDS011;646;48.696;9.114;2022-07-22T03:27:35;13.77;;;10.20;;
1306;SDS011;646;48.696;9.114;2022-07-22T03:30:02;12.10;;;10.90;;
1306;SDS011;646;48.696;9.114;2022-07-22T03:32:28;12.43;;;11.23;;
1306;SDS011;646;48.696;9.114;2022-07-22T03:34:54;15.17;;;11.67;;
1306;SDS011;646;48.696;9.114;2022-07-22T03:37:19;10.73;;;9.73;;
1306;SDS011;646;48.696;9.114;2022-07-22T03:39:45;11.33;;;10.13;;
1306;SDS011;646;48.696;9.114;2022-07-22T03:42:10;11.10;;;9.97;;
1306;SDS011;646;48.696;9.114;2022-07-22T03:44:36;10.90;;;9.87;;
1306;SDS011;646;48.696;9.114;2022-07-22T03:47:01;16.43;;;10.77;;
1306;SDS011;646;48.696;9.114;2022-07-22T03:49:27;11.27;;;10.23;;
1306;SDS011;646;48.696;9.114;2022-07-22T03:51:54;12.17;;;10.70;;
1306;SDS011;646;48.696;9.114;2022-07-22T03:54:20;12.87;;;10.80;;
1306;SDS011;646;48.696;9.114;2022-07-22T03:56:46;12.27;;;11.03;;
1306;SDS011;646;48.696;9.114;2022-07-22T03:59:11;11.70;;;10.50;;
1306;SDS011;646;48.696;9.114;2022-07-22T04:01:37;14.23;;;10.90;;
1306;SDS011;646;48.696;9.114;2022-07-22T04:04:02;13.53;;;12.13;;
1306;SDS011;646;48.696;9.114;2022-07-22T04:06:28;11.33;;;10.23;;
1306;SDS011;646;48.696;9.114;2022-07-22T04:08:54;12.17;;;10.97;;
1306;SDS011;646;48.696;9.114;2022-07-22T04:11:19;14.00;;;11.47;;
1306;SDS011;646;48.696;9.114;2022-07-22T04:13:45;14.00;;;12.60;;
1306;SDS011;646;48.696;9.114;2022-07-22T04:16:11;12.17;;;10.97;;
1306;SDS011;646;48.696;9.114;2022-07-22T04:18:36;13.33;;;11.97;;
1306;SDS011;646;48.696;9.114;2022-07-22T04:21:02;13.57;;;11.90;;
1306;SDS011;646;48.696;9.114;2022-07-22T04:23:28;12.30;;;11.07;;
1306;SDS011;646;48.696;9.114;2022-07-22T04:25:53;12.53;;;11.33;;
1306;SDS011;646;48.696;9.114;2022-07-22T04:28:19;11.80;;;10.67;;
1306;SDS011;646;48.696;9.114;2022-07-22T04:30:45;13.33;;;12.00;;
1306;SDS011;646;48.696;9.114;2022-07-22T04:33:10;12.40;;;11.20;;
1306;SDS011;646;48.696;9.114;2022-07-22T04:35:36;12.80;;;11.00;;
1306;SDS011;646;48.696;9.114;2022-07-22T04:38:01;14.90;;;13.40;;
1306;SDS011;646;48.696;9.114;2022-07-22T04:40:27;20.03;;;12.20;;
1306;SDS011;646;48.696;9.114;2022-07-22T04:42:53;13.23;;;12.00;;
1306;SDS011;646;48.696;9.114;2022-07-22T04:45:19;13.10;;;11.90;;
1306;SDS011;646;48.696;9.114;2022-07-22T04:47:44;13.43;;;12.13;;
1306;SDS011;646;48.696;9.114;2022-07-22T04:50:10;18.00;;;12.43;;
1306;SDS011;646;48.696;9.114;2022-07-22T04:52:35;13.90;;;12.63;;
1306;SDS011;646;48.696;9.114;2022-07-22T04:55:01;17.53;;;13.00;;
1306;SDS011;646;48.696;9.114;2022-07-22T04:57:26;13.30;;;12.00;;
1306;SDS011;646;48.696;9.114;2022-07-22T04:59:52;14.27;;;12.90;;
1306;SDS011;646;48.696;9.114;2022-07-22T05:02:18;14.13;;;12.83;;
1306;SDS011;646;48.696;9.114;2022-07-22T05:04:43;13.43;;;12.13;;
1306;SDS011;646;48.696;9.114;2022-07-22T05:07:09;14.23;;;12.90;;
1306;SDS011;646;48.696;9.114;2022-07-22T05:09:35;13.03;;;11.77;;
1306;SDS011;646;48.696;9.114;2022-07-22T05:12:00;12.90;;;11.70;;
1306;SDS011;646;48.696;9.114;2022-07-22T05:14:26;13.70;;;12.57;;
1306;SDS011;646;48.696;9.114;2022-07-22T05:16:51;13.80;;;12.60;;
1306;SDS011;646;48.696;9.114;2022-07-22T05:19:17;14.67;;;13.30;;
1306;SDS011;646;48.696;9.114;2022-07-22T05:21:43;15.17;;;12.33;;
1306;SDS011;646;48.696;9.114;2022-07-22T05:24:08;13.17;;;11.90;;
1306;SDS011;646;48.696;9.114;2022-07-22T05:26:34;12.60;;;11.30;;
1306;SDS011;646;48.696;9.114;2022-07-22T05:28:59;13.40;;;12.10;;
1306;SDS011;646;48.696;9.114;2022-07-22T05:31:25;11.33;;;10.13;;
1306;SDS011;646;48.696;9.114;2022-07-22T05:33:50;11.87;;;10.77;;
1306;SDS011;646;48.696;9.114;2022-07-22T05:36:16;10.97;;;10.07;;
1306;SDS011;646;48.696;9.114;2022-07-22T05:38:42;11.77;;;10.43;;
1306;SDS011;646;48.696;9.114;2022-07-22T05:41:07;11.53;;;10.43;;
1306;SDS011;646;48.696;9.114;2022-07-22T05:43:33;12.40;;;11.30;;
1306;SDS011;646;48.696;9.114;2022-07-22T05:45:58;12.13;;;11.10;;
1306;SDS011;646;48.696;9.114;2022-07-22T05:48:24;12.30;;;11.27;;
1306;SDS011;646;48.696;9.114;2022-07-22T05:50:50;12.17;;;11.07;;
1306;SDS011;646;48.696;9.114;2022-07-22T05:53:15;12.80;;;11.80;;
1306;SDS011;646;48.696;9.114;2022-07-22T05:55:41;12.67;;;11.47;;
1306;SDS011;646;48.696;9.114;2022-07-22T05:58:06;12.70;;;11.60;;
1306;SDS011;646;48.696;9.114;2022-07-22T06:00:32;11.70;;;10.67;;
1306;SDS011;646;48.696;9.114;2022-07-22T06:02:57;12.63;;;11.57;;
1306;SDS011;646;48.696;9.114;2022-07-22T06:05:23;12.57;;;11.47;;
1306;SDS011;646;48.696;9.114;2022-07-22T06:07:48;11.80;;;10.70;;
1306;SDS011;646;48.696;9.114;2022-07-22T06:10:14;11.23;;;10.23;;
1306;SDS011;646;48.696;9.114;2022-07-22T06:12:39;11.50;;;10.50;;
1306;SDS011;646;48.696;9.114;2022-07-22T06:15:05;12.37;;;11.17;;
1306;SDS011;646;48.696;9.114;2022-07-22T06:17:31;12.87;;;11.57;;
1306;SDS011;646;48.696;9.114;2022-07-22T06:19:57;11.87;;;10.80;;
1306;SDS011;646;48.696;9.114;2022-07-22T06:22:22;12.00;;;11.00;;
1306;SDS011;646;48.696;9.114;2022-07-22T06:24:48;11.50;;;10.60;;
1306;SDS011;646;48.696;9.114;2022-07-22T06:27:13;11.27;;;10.37;;
1306;SDS011;646;48.696;9.114;2022-07-22T06:29:39;11.70;;;10.80;;
1306;SDS011;646;48.696;9.114;2022-07-22T06:32:06;11.27;;;10.37;;
1306;SDS011;646;48.696;9.114;2022-07-22T06:34:31;11.20;;;10.23;;
1306;SDS011;646;48.696;9.114;2022-07-22T06:36:57;10.70;;;9.70;;
1306;SDS011;646;48.696;9.114;2022-07-22T06:39:22;9.90;;;9.00;;
1306;SDS011;646;48.696;9.114;2022-07-22T06:41:48;13.53;;;12.20;;
1306;SDS011;646;48.696;9.114;2022-07-22T06:44:13;14.80;;;12.10;;
1306;SDS011;646;48.696;9.114;2022-07-22T06:46:39;12.73;;;11.43;;
1306;SDS011;646;48.696;9.114;2022-07-22T06:49:04;12.70;;;11.50;;
1306;SDS011;646;48.696;9.114;2022-07-22T06:51:31;10.40;;;9.50;;
1306;SDS011;646;48.696;9.114;2022-07-22T06:53:57;13.17;;;12.07;;
1306;SDS011;646;48.696;9.114;2022-07-22T06:56:22;13.30;;;12.20;;
1306;SDS011;646;48.696;9.114;2022-07-22T06:58:48;12.33;;;11.23;;
1306;SDS011;646;48.696;9.114;2022-07-22T07:01:13;12.80;;;11.80;;
1306;SDS011;646;48.696;9.114;2022-07-22T07:03:39;11.20;;;10.30;;
1306;SDS011;646;48.696;9.114;2022-07-22T07:06:06;11.43;;;10.53;;
1306;SDS011;646;48.696;9.114;2022-07-22T07:08:33;13.87;;;12.67;;
1306;SDS011;646;48.696;9.114;2022-07-22T07:10:58;12.33;;;11.30;;
1306;SDS011;646;48.696;9.114;2022-07-22T07:13:24;11.60;;;10.70;;
1306;SDS011;646;48.696;9.114;2022-07-22T07:15:50;12.03;;;10.93;;
1306;SDS011;646;48.696;9.114;2022-07-22T07:18:16;11.20;;;10.33;;
1306;SDS011;646;48.696;9.114;2022-07-22T07:20:42;12.53;;;11.53;;
1306;SDS011;646;48.696;9.114;2022-07-22T07:23:07;11.97;;;11.00;;
1306;SDS011;646;48.696;9.114;2022-07-22T07:25:33;12.90;;;11.70;;
1306;SDS011;646;48.696;9.114;2022-07-22T07:27:59;12.60;;;11.53;;
1306;SDS011;646;48.696;9.114;2022-07-22T07:30:25;13.80;;;11.80;;
1306;SDS011;646;48.696;9.114;2022-07-22T07:32:50;12.90;;;11.70;;
1306;SDS011;646;48.696;9.114;2022-07-22T07:35:16;12.33;;;11.33;;
1306;SDS011;646;48.696;9.114;2022-07-22T07:37:41;18.30;;;13.40;;
1306;SDS011;646;48.696;9.114;2022-07-22T07:40:07;14.90;;;13.37;;
1306;SDS011;646;48.696;9.114;2022-07-22T07:42:33;13.17;;;11.97;;
1306;SDS011;646;48.696;9.114;2022-07-22T07:44:59;13.87;;;12.33;;
1306;SDS011;646;48.696;9.114;2022-07-22T07:47:25;14.17;;;12.77;;
1306;SDS011;646;48.696;9.114;2022-07-22T07:49:50;13.23;;;11.83;;
1306;SDS011;646;48.696;9.114;2022-07-22T07:52:16;12.83;;;11.63;;
1306;SDS011;646;48.696;9.114;2022-07-22T07:54:42;13.67;;;12.27;;
1306;SDS011;646;48.696;9.114;2022-07-22T07:57:09;14.70;;;12.50;;
1306;SDS011;646;48.696;9.114;2022-07-22T07:59:39;13.77;;;12.57;;
1306;SDS011;646;48.696;9.114;2022-07-22T08:02:05;14.77;;;13.37;;
1306;SDS011;646;48.696;9.114;2022-07-22T08:04:31;12.70;;;10.90;;
1306;SDS011;646;48.696;9.114;2022-07-22T08:06:57;13.30;;;12.10;;
1306;SDS011;646;48.696;9.114;2022-07-22T08:09:23;13.40;;;12.10;;
1306;SDS011;646;48.696;9.114;2022-07-22T08:11:49;14.10;;;12.70;;
1306;SDS011;646;48.696;9.114;2022-07-22T08:14:14;13.20;;;12.00;;
1306;SDS011;646;48.696;9.114;2022-07-22T08:16:40;14.60;;;13.20;;
1306;SDS011;646;48.696;9.114;2022-07-22T08:19:06;14.57;;;13.03;;
1306;SDS011;646;48.696;9.114;2022-07-22T08:21:31;13.40;;;12.10;;
1306;SDS011;646;48.696;9.114;2022-07-22T08:23:57;12.80;;;11.80;;
1306;SDS011;646;48.696;9.114;2022-07-22T08:26:22;14.20;;;12.73;;
1306;SDS011;646;48.696;9.114;2022-07-22T08:28:48;11.97;;;10.80;;
1306;SDS011;646;48.696;9.114;2022-07-22T08:31:13;13.20;;;12.10;;
1306;SDS011;646;48.696;9.114;2022-07-22T08:33:39;12.20;;;11.20;;
1306;SDS011;646;48.696;9.114;2022-07-22T08:36:04;13.70;;;12.60;;
1306;SDS011;646;48.696;9.114;2022-07-22T08:38:30;12.87;;;11.57;;
1306;SDS011;646;48.696;9.114;2022-07-22T08:40:57;10.67;;;9.80;;
1306;SDS011;646;48.696;9.114;2022-07-22T08:43:23;12.10;;;11.00;;
1306;SDS011;646;48.696;9.114;2022-07-22T08:45:49;11.57;;;10.67;;
1306;SDS011;646;48.696;9.114;2022-07-22T08:48:15;11.90;;;11.00;;
1306;SDS011;646;48.696;9.114;2022-07-22T08:50:41;11.60;;;10.70;;
1306;SDS011;646;48.696;9.114;2022-07-22T08:53:11;11.87;;;10.87;;
1306;SDS011;646;48.696;9.114;2022-07-22T08:55:43;10.77;;;9.90;;
1306;SDS011;646;48.696;9.114;2022-07-22T08:58:10;10.30;;;9.60;;
1306;SDS011;646;48.696;9.114;2022-07-22T09:00:36;10.40;;;9.60;;
1306;SDS011;646;48.696;9.114;2022-07-22T09:03:15;10.83;;;10.03;;
1306;SDS011;646;48.696;9.114;2022-07-22T09:05:46;11.40;;;10.50;;
1306;SDS011;646;48.696;9.114;2022-07-22T09:08:13;11.87;;;10.83;;
1306;SDS011;646;48.696;9.114;2022-07-22T09:10:38;11.53;;;10.50;;
1306;SDS011;646;48.696;9.114;2022-07-22T09:13:05;10.33;;;9.43;;
1306;SDS011;646;48.696;9.114;2022-07-22T09:15:33;9.80;;;9.10;;
1306;SDS011;646;48.696;9.114;2022-07-22T09:18:01;10.60;;;9.70;;
1306;SDS011;646;48.696;9.114;2022-07-22T09:20:27;10.40;;;9.60;;
1306;SDS011;646;48.696;9.114;2022-07-22T09:22:53;10.47;;;9.63;;
1306;SDS011;646;48.696;9.114;2022-07-22T09:25:20;11.23;;;10.20;;
1306;SDS011;646;48.696;9.114;2022-07-22T09:33:14;9.47;;;8.67;;
1306;SDS011;646;48.696;9.114;2022-07-22T09:35:40;9.17;;;8.37;;
1306;SDS011;646;48.696;9.114;2022-07-22T09:38:07;10.23;;;9.40;;
1306;SDS011;646;48.696;9.114;2022-07-22T09:40:35;9.23;;;8.40;;
1306;SDS011;646;48.696;9.114;2022-07-22T09:43:24;9.77;;;9.17;;
1306;SDS011;646;48.696;9.114;2022-07-22T09:45:52;10.40;;;8.93;;
1306;SDS011;646;48.696;9.114;2022-07-22T09:48:20;9.47;;;8.67;;
1306;SDS011;646;48.696;9.114;2022-07-22T09:50:50;9.10;;;8.40;;
1306;SDS011;646;48.696;9.114;2022-07-22T09:53:18;9.33;;;8.73;;
1306;SDS011;646;48.696;9.114;2022-07-22T09:55:45;9.53;;;8.83;;
1306;SDS011;646;48.696;9.114;2022-07-22T09:58:11;9.10;;;8.30;;
1306;SDS011;646;48.696;9.114;2022-07-22T10:00:37;10.43;;;9.63;;
1306;SDS011;646;48.696;9.114;2022-07-22T10:03:05;10.17;;;9.37;;
1306;SDS011;646;48.696;9.114;2022-07-22T10:05:33;8.90;;;8.27;;
1306;SDS011;646;48.696;9.114;2022-07-22T10:08:01;9.40;;;8.70;;
1306;SDS011;646;48.696;9.114;2022-07-22T10:10:29;9.60;;;9.00;;
1306;SDS011;646;48.696;9.114;2022-07-22T10:12:56;8.80;;;8.30;;
1306;SDS011;646;48.696;9.114;2022-07-22T10:15:24;9.00;;;8.50;;
1306;SDS011;646;48.696;9.114;2022-07-22T10:17:54;9.83;;;9.07;;
1306;SDS011;646;48.696;9.114;2022-07-22T10:20:23;10.10;;;9.30;;
1306;SDS011;646;48.696;9.114;2022-07-22T10:22:51;10.10;;;8.30;;
1306;SDS011;646;48.696;9.114;2022-07-22T10:25:19;9.43;;;8.77;;
1306;SDS011;646;48.696;9.114;2022-07-22T10:27:54;8.80;;;8.10;;
1306;SDS011;646;48.696;9.114;2022-07-22T10:30:24;9.60;;;8.90;;
1306;SDS011;646;48.696;9.114;2022-07-22T10:35:30;8.90;;;8.40;;
1306;SDS011;646;48.696;9.114;2022-07-22T10:37:57;9.00;;;8.17;;
1306;SDS011;646;48.696;9.114;2022-07-22T10:40:26;8.83;;;8.10;;
1306;SDS011;646;48.696;9.114;2022-07-22T10:48:12;9.00;;;8.30;;
1306;SDS011;646;48.696;9.114;2022-07-22T10:50:43;9.93;;;9.20;;
1306;SDS011;646;48.696;9.114;2022-07-22T10:53:18;10.13;;;9.33;;
1306;SDS011;646;48.696;9.114;2022-07-22T10:56:05;8.90;;;8.30;;
1306;SDS011;646;48.696;9.114;2022-07-22T11:00:59;10.10;;;9.40;;
1306;SDS011;646;48.696;9.114;2022-07-22T11:03:31;9.53;;;8.93;;
1306;SDS011;646;48.696;9.114;2022-07-22T11:06:12;9.10;;;8.33;;
1306;SDS011;646;48.696;9.114;2022-07-22T11:08:49;9.90;;;9.10;;
1306;SDS011;646;48.696;9.114;2022-07-22T11:11:17;10.00;;;9.30;;
1306;SDS011;646;48.696;9.114;2022-07-22T11:13:44;9.70;;;9.10;;
1306;SDS011;646;48.696;9.114;2022-07-22T11:16:15;8.07;;;7.57;;
1306;SDS011;646;48.696;9.114;2022-07-22T11:18:44;8.57;;;7.97;;
1306;SDS011;646;48.696;9.114;2022-07-22T11:21:10;8.60;;;8.00;;
1306;SDS011;646;48.696;9.114;2022-07-22T11:23:39;8.37;;;7.87;;
1306;SDS011;646;48.696;9.114;2022-07-22T11:26:05;8.13;;;7.67;;
1306;SDS011;646;48.696;9.114;2022-07-22T11:28:31;9.00;;;8.40;;
1306;SDS011;646;48.696;9.114;2022-07-22T11:31:06;8.90;;;8.20;;
1306;SDS011;646;48.696;9.114;2022-07-22T11:33:33;8.30;;;7.70;;
1306;SDS011;646;48.696;9.114;2022-07-22T11:36:02;9.03;;;8.43;;
1306;SDS011;646;48.696;9.114;2022-07-22T11:41:16;8.57;;;7.97;;
1306;SDS011;646;48.696;9.114;2022-07-22T11:43:47;9.13;;;8.43;;
1306;SDS011;646;48.696;9.114;2022-07-22T11:46:14;9.43;;;8.80;;
1306;SDS011;646;48.696;9.114;2022-07-22T11:48:42;7.90;;;7.50;;
1306;SDS011;646;48.696;9.114;2022-07-22T11:51:08;9.27;;;8.27;;
1306;SDS011;646;48.696;9.114;2022-07-22T11:53:35;8.20;;;7.67;;
1306;SDS011;646;48.696;9.114;2022-07-22T11:56:02;8.90;;;8.20;;
1306;SDS011;646;48.696;9.114;2022-07-22T11:58:42;8.43;;;7.83;;
1306;SDS011;646;48.696;9.114;2022-07-22T12:01:11;9.20;;;8.60;;
1306;SDS011;646;48.696;9.114;2022-07-22T12:03:39;8.90;;;8.00;;
1306;SDS011;646;48.696;9.114;2022-07-22T12:06:09;9.00;;;8.40;;
1306;SDS011;646;48.696;9.114;2022-07-22T12:08:40;8.93;;;8.43;;
1306;SDS011;646;48.696;9.114;2022-07-22T12:11:29;8.87;;;8.27;;
1306;SDS011;646;48.696;9.114;2022-07-22T12:13:55;9.30;;;8.60;;
1306;SDS011;646;48.696;9.114;2022-07-22T12:16:22;9.00;;;8.40;;
1306;SDS011;646;48.696;9.114;2022-07-22T12:18:53;8.40;;;7.80;;
1306;SDS011;646;48.696;9.114;2022-07-22T12:21:24;9.00;;;8.40;;
1306;SDS011;646;48.696;9.114;2022-07-22T12:24:02;8.50;;;8.00;;
1306;SDS011;646;48.696;9.114;2022-07-22T12:26:36;8.83;;;8.23;;
1306;SDS011;646;48.696;9.114;2022-07-22T12:29:17;8.67;;;8.07;;
1306;SDS011;646;48.696;9.114;2022-07-22T12:32:11;8.57;;;7.87;;
1306;SDS011;646;48.696;9.114;2022-07-22T12:34:59;8.37;;;7.77;;
1306;SDS011;646;48.696;9.114;2022-07-22T12:39:55;8.40;;;7.80;;
1306;SDS011;646;48.696;9.114;2022-07-22T12:42:20;8.70;;;8.10;;
1306;SDS011;646;48.696;9.114;2022-07-22T12:44:50;8.80;;;8.23;;
1306;SDS011;646;48.696;9.114;2022-07-22T12:52:59;8.13;;;7.63;;
1306;SDS011;646;48.696;9.114;2022-07-22T12:55:30;8.73;;;8.13;;
1306;SDS011;646;48.696;9.114;2022-07-22T12:57:56;8.60;;;8.00;;
1306;SDS011;646;48.696;9.114;2022-07-22T13:00:23;8.00;;;7.50;;
1306;SDS011;646;48.696;9.114;2022-07-22T13:02:51;8.87;;;8.27;;
1306;SDS011;646;48.696;9.114;2022-07-22T13:05:17;8.87;;;8.30;;
1306;SDS011;646;48.696;9.114;2022-07-22T13:07:43;8.77;;;8.17;;
1306;SDS011;646;48.696;9.114;2022-07-22T13:10:09;8.93;;;8.13;;
1306;SDS011;646;48.696;9.114;2022-07-22T13:12:35;8.90;;;8.30;;
1306;SDS011;646;48.696;9.114;2022-07-22T13:15:01;8.40;;;7.90;;
1306;SDS011;646;48.696;9.114;2022-07-22T13:17:27;8.20;;;7.70;;
1306;SDS011;646;48.696;9.114;2022-07-22T13:19:53;8.87;;;8.17;;
1306;SDS011;646;48.696;9.114;2022-07-22T13:22:19;8.43;;;7.63;;
1306;SDS011;646;48.696;9.114;2022-07-22T13:24:44;8.37;;;7.57;;
1306;SDS011;646;48.696;9.114;2022-07-22T13:27:10;7.60;;;7.10;;
1306;SDS011;646;48.696;9.114;2022-07-22T13:29:36;8.20;;;7.70;;
1306;SDS011;646;48.696;9.114;2022-07-22T13:32:01;8.33;;;7.60;;
1306;SDS011;646;48.696;9.114;2022-07-22T13:34:27;8.27;;;7.77;;
1306;SDS011;646;48.696;9.114;2022-07-22T13:36:52;8.53;;;7.93;;
1306;SDS011;646;48.696;9.114;2022-07-22T13:39:18;7.60;;;7.20;;
1306;SDS011;646;48.696;9.114;2022-07-22T13:41:44;8.20;;;7.70;;
1306;SDS011;646;48.696;9.114;2022-07-22T13:44:09;8.90;;;8.30;;
1306;SDS011;646;48.696;9.114;2022-07-22T13:46:35;8.10;;;7.60;;
1306;SDS011;646;48.696;9.114;2022-07-22T13:49:01;7.90;;;7.40;;
1306;SDS011;646;48.696;9.114;2022-07-22T13:51:27;7.90;;;7.40;;
1306;SDS011;646;48.696;9.114;2022-07-22T13:53:52;7.60;;;7.10;;
1306;SDS011;646;48.696;9.114;2022-07-22T13:56:18;8.07;;;7.57;;
1306;SDS011;646;48.696;9.114;2022-07-22T13:58:43;7.57;;;7.07;;
1306;SDS011;646;48.696;9.114;2022-07-22T14:01:09;8.20;;;7.70;;
1306;SDS011;646;48.696;9.114;2022-07-22T14:03:35;8.30;;;7.80;;
1306;SDS011;646;48.696;9.114;2022-07-22T14:06:01;8.30;;;7.70;;
1306;SDS011;646;48.696;9.114;2022-07-22T14:08:28;8.40;;;7.73;;
1306;SDS011;646;48.696;9.114;2022-07-22T14:10:53;8.30;;;7.80;;
1306;SDS011;646;48.696;9.114;2022-07-22T14:13:19;8.73;;;8.23;;
1306;SDS011;646;48.696;9.114;2022-07-22T14:15:44;7.83;;;7.30;;
1306;SDS011;646;48.696;9.114;2022-07-22T14:18:10;8.37;;;7.77;;
1306;SDS011;646;48.696;9.114;2022-07-22T14:20:35;8.33;;;7.73;;
1306;SDS011;646;48.696;9.114;2022-07-22T14:23:01;8.33;;;7.80;;
1306;SDS011;646;48.696;9.114;2022-07-22T14:25:27;7.57;;;7.13;;
1306;SDS011;646;48.696;9.114;2022-07-22T14:27:53;8.60;;;8.00;;
1306;SDS011;646;48.696;9.114;2022-07-22T14:30:19;11.33;;;8.60;;
1306;SDS011;646;48.696;9.114;2022-07-22T14:32:44;8.03;;;7.47;;
1306;SDS011;646;48.696;9.114;2022-07-22T14:35:10;8.03;;;7.53;;
1306;SDS011;646;48.696;9.114;2022-07-22T14:37:35;9.33;;;7.80;;
1306;SDS011;646;48.696;9.114;2022-07-22T14:40:01;9.73;;;7.60;;
1306;SDS011;646;48.696;9.114;2022-07-22T14:42:27;8.60;;;7.77;;
1306;SDS011;646;48.696;9.114;2022-07-22T14:44:53;9.90;;;8.13;;
1306;SDS011;646;48.696;9.114;2022-07-22T14:47:18;9.30;;;8.30;;
1306;SDS011;646;48.696;9.114;2022-07-22T14:49:44;9.33;;;8.17;;
1306;SDS011;646;48.696;9.114;2022-07-22T14:52:09;8.57;;;7.77;;
1306;SDS011;646;48.696;9.114;2022-07-22T14:54:35;11.10;;;8.63;;
1306;SDS011;646;48.696;9.114;2022-07-22T14:57:00;19.03;;;9.37;;
1306;SDS011;646;48.696;9.114;2022-07-22T14:59:27;8.50;;;7.90;;
1306;SDS011;646;48.696;9.114;2022-07-22T15:01:53;8.40;;;7.70;;
1306;SDS011;646;48.696;9.114;2022-07-22T15:04:19;8.40;;;7.90;;
1306;SDS011;646;48.696;9.114;2022-07-22T15:06:45;8.87;;;8.00;;
1306;SDS011;646;48.696;9.114;2022-07-22T15:09:11;7.90;;;7.43;;
1306;SDS011;646;48.696;9.114;2022-07-22T15:11:36;27.83;;;9.70;;
1306;SDS011;646;48.696;9.114;2022-07-22T15:14:02;15.50;;;8.70;;
1306;SDS011;646;48.696;9.114;2022-07-22T15:16:28;8.50;;;7.70;;
1306;SDS011;646;48.696;9.114;2022-07-22T15:18:53;8.80;;;8.10;;
1306;SDS011;646;48.696;9.114;2022-07-22T15:21:19;12.20;;;9.27;;
1306;SDS011;646;48.696;9.114;2022-07-22T15:23:44;9.10;;;8.37;;
1306;SDS011;646;48.696;9.114;2022-07-22T15:26:10;9.80;;;8.93;;
1306;SDS011;646;48.696;9.114;2022-07-22T15:28:35;10.00;;;8.73;;
1306;SDS011;646;48.696;9.114;2022-07-22T15:31:04;10.90;;;8.87;;
1306;SDS011;646;48.696;9.114;2022-07-22T15:33:30;8.90;;;8.17;;
1306;SDS011;646;48.696;9.114;2022-07-22T15:35:56;10.90;;;7.80;;
1306;SDS011;646;48.696;9.114;2022-07-22T15:38:22;8.50;;;7.80;;